Terminal Aerodrome Forecast
Issued by NWS Austin/San Antonio, TX

Home | Current Version | Previous Version | Text Only | Print | Product List | Glossary On
Versions: 1 2 3 4 5 6 7 8 9 10 11 12 13 14 15 16 17 18 19 20
000
FTUS44 KEWX 221733
TAFDRT
TAF
KDRT 221733Z 2218/2318 12010KT P6SM OVC007
     FM221900 12013KT P6SM OVC015
     FM222100 13016KT P6SM BKN050
     FM230300 11010KT P6SM BKN015
     FM230800 12009KT 6SM -SHRA OVC007=

USA.gov is the U.S. government's official web portal to all federal, state and local government web resources and services.